Aviation Digital Data Service (ADDS)

Output produced by METARs form (1328 UTC 24 May 2019)
found at http://www.aviationweather.gov/metar/data/
 
TAF RJEC 241108Z 2412/2518 35005KT 9999 FEW030 
     BECMG 2413/2415 17007KT